Time;durP1;ratioP1;P1;durP2;ratioP2;P2;SDS_P1;SDS_P2;PMS_P1;PMS_P2;Temp;Humidity;BMP_temperature;BMP_pressure;BME280_temperature;BME280_humidity;BME280_pressure;Samples;Min_cycle;Max_cycle;Signal;HPM_P1;HPM_P2
2021/01/06 00:01:29;;;;;;;7.70;3.60;;;1.50;99.90;;;;;;5024843;28;20169;-74
2021/01/06 00:03:55;;;;;;;7.50;3.05;;;1.50;99.90;;;;;;5032948;28;20052;-74
2021/01/06 00:06:29;;;;;;;7.97;3.22;;;1.40;99.90;;;;;;5037750;28;20017;-74
2021/01/06 00:08:55;;;;;;;6.72;3.10;;;1.40;99.90;;;;;;5054393;28;20496;-74
2021/01/06 00:11:28;;;;;;;8.10;3.33;;;1.40;99.90;;;;;;5052894;28;20037;-74
2021/01/06 00:13:54;;;;;;;5.85;2.60;;;1.50;99.90;;;;;;5054237;28;20047;-74
2021/01/06 00:16:19;;;;;;;6.63;3.13;;;1.50;99.90;;;;;;5042513;28;20428;-74
2021/01/06 00:18:46;;;;;;;6.35;2.90;;;1.50;99.90;;;;;;5032977;28;20052;-74
2021/01/06 00:21:12;;;;;;;12.32;3.45;;;1.40;99.90;;;;;;5034113;28;20389;-74
2021/01/06 00:23:38;;;;;;;17.92;3.42;;;1.40;99.90;;;;;;5032810;28;20028;-74
2021/01/06 00:26:04;;;;;;;7.32;3.28;;;1.40;99.90;;;;;;5029674;28;20022;-73
2021/01/06 00:28:29;;;;;;;8.63;3.08;;;1.40;99.90;;;;;;5014348;28;20036;-73
2021/01/06 00:30:57;;;;;;;7.45;3.40;;;1.30;99.90;;;;;;5012795;28;20030;-74
2021/01/06 00:33:31;;;;;;;4.85;2.88;;;1.30;99.90;;;;;;5012861;28;20038;-73
2021/01/06 00:35:59;;;;;;;14.65;2.97;;;1.30;99.90;;;;;;5013918;28;20135;-74
2021/01/06 00:38:27;;;;;;;9.25;3.47;;;1.30;99.90;;;;;;5033891;28;20539;-74
2021/01/06 00:40:53;;;;;;;6.18;2.75;;;1.30;99.90;;;;;;5032499;28;20168;-74
2021/01/06 00:43:19;;;;;;;5.30;2.88;;;1.30;99.90;;;;;;5033638;28;20095;-73
2021/01/06 00:45:45;;;;;;;10.45;3.13;;;1.20;99.90;;;;;;5027737;28;20140;-74
2021/01/06 00:48:12;;;;;;;4.38;2.88;;;1.20;99.90;;;;;;5013856;28;20030;-74
2021/01/06 00:50:39;;;;;;;7.78;3.60;;;1.20;99.90;;;;;;5012596;28;20022;-74
2021/01/06 00:53:08;;;;;;;11.70;3.45;;;1.20;99.90;;;;;;5013865;28;20053;-73
2021/01/06 00:55:34;;;;;;;14.63;4.85;;;1.10;99.90;;;;;;5013393;28;20087;-73
2021/01/06 00:57:59;;;;;;;7.82;3.58;;;1.10;99.90;;;;;;5033009;28;20041;-74
2021/01/06 01:00:28;;;;;;;7.68;3.00;;;1.00;99.90;;;;;;5033359;28;20021;-73
2021/01/06 01:02:54;;;;;;;13.38;3.28;;;1.00;99.90;;;;;;5033402;28;20132;-73
2021/01/06 01:05:22;;;;;;;9.63;3.28;;;1.00;99.90;;;;;;5033144;28;20030;-74
2021/01/06 01:07:48;;;;;;;10.27;3.63;;;1.00;99.90;;;;;;5017373;28;20072;-73
2021/01/06 01:10:30;;;;;;;7.85;3.20;;;0.90;99.90;;;;;;5012221;28;20053;-74
2021/01/06 01:12:57;;;;;;;6.75;3.70;;;0.90;99.90;;;;;;5013402;28;20022;-74
2021/01/06 01:15:24;;;;;;;6.60;3.20;;;0.80;99.90;;;;;;5013713;28;20028;-73
2021/01/06 01:17:49;;;;;;;11.32;3.45;;;0.90;99.90;;;;;;5033065;28;20037;-73
2021/01/06 01:20:17;;;;;;;7.38;3.83;;;0.90;99.90;;;;;;5031778;28;20075;-74
2021/01/06 01:22:44;;;;;;;18.55;3.50;;;0.80;99.90;;;;;;5032968;28;20075;-73
2021/01/06 01:25:15;;;;;;;7.90;3.45;;;0.80;99.90;;;;;;5032617;28;20036;-73
2021/01/06 01:27:42;;;;;;;7.13;3.97;;;0.90;99.90;;;;;;5015332;28;20026;-74
2021/01/06 01:30:12;;;;;;;13.50;3.88;;;0.90;99.90;;;;;;5013190;28;20033;-73
2021/01/06 01:32:42;;;;;;;6.53;3.72;;;0.90;99.90;;;;;;5032425;28;20502;-74
2021/01/06 01:35:08;;;;;;;7.93;3.60;;;0.90;99.90;;;;;;5031511;28;20486;-74
2021/01/06 01:37:33;;;;;;;8.43;3.33;;;0.80;99.90;;;;;;5031882;28;20053;-74
2021/01/06 01:39:59;;;;;;;8.20;3.90;;;0.80;99.90;;;;;;5031497;28;20414;-73
2021/01/06 01:42:24;;;;;;;7.15;4.10;;;0.80;99.90;;;;;;5032525;28;20041;-73
2021/01/06 01:45:03;;;;;;;10.98;3.88;;;0.80;99.90;;;;;;5031125;28;20477;-73
2021/01/06 01:47:40;;;;;;;6.78;3.78;;;0.80;99.90;;;;;;5013953;28;20474;-73
2021/01/06 01:50:06;;;;;;;13.05;4.43;;;0.80;99.90;;;;;;5012743;28;20379;-74
2021/01/06 01:52:41;;;;;;;11.48;4.38;;;0.80;99.90;;;;;;5012801;28;20025;-74
2021/01/06 01:55:10;;;;;;;10.02;4.38;;;0.90;99.90;;;;;;5012372;28;20079;-74
2021/01/06 01:57:43;;;;;;;19.73;5.80;;;0.90;99.90;;;;;;5028552;28;20054;-73
2021/01/06 02:00:13;;;;;;;13.43;4.75;;;0.80;99.90;;;;;;5031146;28;20035;-73
2021/01/06 02:02:56;;;;;;;14.35;5.68;;;0.90;99.90;;;;;;5030738;28;20033;-73
2021/01/06 02:05:27;;;;;;;7.80;4.65;;;0.90;99.90;;;;;;5032091;28;20025;-73
2021/01/06 02:08:01;;;;;;;9.48;4.38;;;1.00;99.90;;;;;;5016198;28;20112;-73
2021/01/06 02:10:34;;;;;;;;;;;0.90;99.90;;;;;;5011686;28;20018;-73
2021/01/06 02:13:17;;;;;;;11.60;5.32;;;0.90;99.90;;;;;;5011509;28;19909;-74
2021/01/06 02:16:09;;;;;;;9.35;5.05;;;0.90;99.90;;;;;;5016200;28;20032;-74
2021/01/06 02:18:35;;;;;;;12.13;4.95;;;0.90;99.90;;;;;;5013795;28;20029;-73
2021/01/06 02:21:13;;;;;;;11.00;5.93;;;0.90;99.90;;;;;;5031974;28;20032;-73
2021/01/06 02:23:40;;;;;;;9.70;5.10;;;0.90;99.90;;;;;;5028746;28;20611;-73
2021/01/06 02:26:07;;;;;;;13.60;5.53;;;1.00;99.90;;;;;;5010056;28;20040;-74
2021/01/06 02:28:33;;;;;;;18.38;5.75;;;1.00;99.90;;;;;;5012277;28;20022;-73
2021/01/06 02:30:59;;;;;;;12.02;5.38;;;1.00;99.90;;;;;;5016691;28;20460;-73
2021/01/06 02:33:25;;;;;;;14.88;6.30;;;0.90;99.90;;;;;;5030639;28;20025;-74
2021/01/06 02:35:52;;;;;;;11.15;5.35;;;1.00;99.90;;;;;;5031483;28;20033;-73
2021/01/06 02:38:19;;;;;;;11.45;5.55;;;0.90;99.90;;;;;;5031832;28;20470;-73
2021/01/06 02:40:45;;;;;;;14.77;5.60;;;1.00;99.90;;;;;;5029002;28;20090;-73
2021/01/06 02:43:11;;;;;;;10.35;5.65;;;1.00;99.90;;;;;;5012055;28;20050;-73
2021/01/06 02:45:37;;;;;;;10.90;6.13;;;1.00;99.90;;;;;;5011712;28;20021;-73
2021/01/06 02:48:03;;;;;;;8.27;5.22;;;1.00;99.90;;;;;;5011944;28;20037;-73
2021/01/06 02:50:31;;;;;;;9.48;5.28;;;1.00;99.90;;;;;;5010663;28;20026;-73
2021/01/06 02:53:00;;;;;;;11.43;5.47;;;1.00;99.90;;;;;;5028102;28;20026;-73
2021/01/06 02:55:29;;;;;;;10.30;5.45;;;1.00;99.90;;;;;;5031320;28;20045;-73
2021/01/06 02:58:00;;;;;;;9.13;4.72;;;1.00;99.90;;;;;;5038195;28;20053;-73
2021/01/06 03:00:27;;;;;;;19.50;5.63;;;1.00;99.90;;;;;;5029958;28;20041;-73
2021/01/06 03:02:53;;;;;;;13.13;5.57;;;0.90;99.90;;;;;;5031359;28;20030;-73
2021/01/06 03:05:26;;;;;;;10.52;5.55;;;0.90;99.90;;;;;;5031391;28;20030;-74
2021/01/06 03:07:53;;;;;;;9.40;4.88;;;0.80;99.90;;;;;;5030359;28;20025;-74
2021/01/06 03:10:20;;;;;;;9.82;5.55;;;0.80;99.90;;;;;;5031497;28;20068;-73
2021/01/06 03:12:48;;;;;;;12.90;5.85;;;0.80;99.90;;;;;;5013705;28;20483;-73
2021/01/06 03:15:16;;;;;;;13.60;6.28;;;0.80;99.90;;;;;;5011508;28;20038;-73
2021/01/06 03:17:42;;;;;;;11.50;4.85;;;0.70;99.90;;;;;;5011742;28;20490;-73
2021/01/06 03:20:14;;;;;;;11.32;5.57;;;0.70;99.90;;;;;;5010430;28;20036;-73
2021/01/06 03:22:42;;;;;;;9.02;5.78;;;0.70;99.90;;;;;;5012005;28;20026;-73
2021/01/06 03:25:10;;;;;;;10.45;5.93;;;0.70;99.90;;;;;;5011397;28;20065;-73
2021/01/06 03:27:39;;;;;;;11.85;5.28;;;0.70;99.90;;;;;;5010401;28;20053;-73
2021/01/06 03:30:11;;;;;;;10.43;6.35;;;0.70;99.90;;;;;;5011426;28;20095;-74
2021/01/06 03:33:09;;;;;;;10.10;6.50;;;0.60;99.90;;;;;;5050427;28;20086;-74
2021/01/06 03:35:39;;;;;;;8.75;5.85;;;0.60;99.90;;;;;;5051028;28;20036;-74
2021/01/06 03:38:34;;;;;;;12.60;6.15;;;0.50;99.90;;;;;;5053790;28;20021;-73
2021/01/06 03:41:01;;;;;;;14.38;6.55;;;0.50;99.90;;;;;;5050725;28;20025;-73
2021/01/06 03:43:30;;;;;;;12.07;6.15;;;0.50;99.90;;;;;;5034991;28;20029;-73
2021/01/06 03:46:02;;;;;;;12.25;6.90;;;0.40;99.90;;;;;;5033981;28;20025;-73
2021/01/06 03:48:40;;;;;;;19.20;7.07;;;0.50;99.90;;;;;;5033590;28;20032;-73
2021/01/06 03:51:20;;;;;;;13.10;6.43;;;0.40;99.90;;;;;;5033475;28;20128;-73
2021/01/06 03:53:49;;;;;;;20.95;6.75;;;0.30;99.90;;;;;;5014461;28;20038;-74
2021/01/06 03:56:26;;;;;;;19.08;6.85;;;0.30;99.90;;;;;;5013881;28;20080;-73
2021/01/06 03:59:12;;;;;;;20.30;7.72;;;0.30;99.90;;;;;;5014511;28;20026;-73
2021/01/06 04:01:52;;;;;;;16.80;7.15;;;0.30;99.90;;;;;;5024481;28;20033;-73
2021/01/06 04:04:22;;;;;;;24.98;7.88;;;0.30;99.90;;;;;;5034407;28;20022;-73
2021/01/06 04:06:50;;;;;;;14.60;7.78;;;0.40;99.90;;;;;;5034585;28;20047;-73
2021/01/06 04:09:21;;;;;;;20.63;7.80;;;0.40;99.90;;;;;;5034449;28;20030;-73
2021/01/06 04:12:02;;;;;;;12.07;6.78;;;0.40;99.90;;;;;;5024637;28;20022;-73
2021/01/06 04:14:28;;;;;;;13.07;6.43;;;0.50;99.90;;;;;;5014164;28;20398;-73
2021/01/06 04:16:53;;;;;;;14.50;7.53;;;0.50;99.90;;;;;;5014568;28;20033;-74
2021/01/06 04:19:19;;;;;;;12.85;7.43;;;0.50;99.90;;;;;;5014519;28;20062;-73
2021/01/06 04:21:45;;;;;;;16.90;7.72;;;0.60;99.90;;;;;;5020645;28;20401;-73
2021/01/06 04:24:13;;;;;;;17.17;7.35;;;0.60;99.90;;;;;;5033865;28;20025;-73
2021/01/06 04:26:39;;;;;;;15.05;6.72;;;0.60;99.90;;;;;;5034123;28;20017;-73
2021/01/06 04:29:06;;;;;;;12.98;6.60;;;0.70;99.90;;;;;;5034111;28;20025;-73
2021/01/06 04:31:31;;;;;;;15.30;6.63;;;0.70;99.90;;;;;;5022374;28;20034;-73
2021/01/06 04:33:58;;;;;;;11.93;6.55;;;0.80;99.90;;;;;;5014120;28;20030;-73
2021/01/06 04:36:27;;;;;;;12.90;6.40;;;0.80;99.90;;;;;;5014144;28;20026;-73
2021/01/06 04:38:56;;;;;;;11.68;6.78;;;0.80;99.90;;;;;;5014040;28;20087;-73
2021/01/06 04:41:31;;;;;;;10.55;6.88;;;0.80;99.90;;;;;;5019848;28;20037;-73
2021/01/06 04:44:32;;;;;;;9.27;6.07;;;0.80;99.90;;;;;;5033713;28;20028;-74
2021/01/06 04:47:34;;;;;;;25.00;8.43;;;0.90;99.90;;;;;;5033430;28;20362;-73
2021/01/06 04:50:25;;;;;;;10.73;6.70;;;0.90;99.90;;;;;;5033007;28;20022;-73
2021/01/06 04:53:14;;;;;;;14.50;7.40;;;1.00;99.90;;;;;;5018188;28;20405;-73
2021/01/06 04:56:05;;;;;;;9.85;5.25;;;1.00;99.90;;;;;;5013504;28;20448;-73
2021/01/06 04:58:49;;;;;;;18.02;7.20;;;1.00;99.90;;;;;;5013804;28;20032;-73
2021/01/06 05:01:42;;;;;;;11.60;6.78;;;1.00;99.90;;;;;;5021362;28;20040;-74
2021/01/06 05:04:13;;;;;;;14.35;6.80;;;1.10;99.90;;;;;;5033220;28;20028;-73
2021/01/06 05:07:01;;;;;;;10.35;6.55;;;1.10;99.90;;;;;;5033464;28;20390;-73
2021/01/06 05:09:34;;;;;;;11.93;6.97;;;1.10;99.90;;;;;;5033329;28;20029;-74
2021/01/06 05:12:09;;;;;;;9.45;6.68;;;1.10;99.90;;;;;;5021848;28;20038;-73
2021/01/06 05:14:45;;;;;;;17.20;7.65;;;1.10;99.90;;;;;;5013234;28;20677;-73
2021/01/06 05:17:12;;;;;;;17.90;8.43;;;1.10;99.90;;;;;;5012183;28;20030;-73
2021/01/06 05:19:39;;;;;;;15.73;7.05;;;1.10;99.90;;;;;;5013398;28;20586;-73
2021/01/06 05:22:05;;;;;;;14.38;8.35;;;1.10;99.90;;;;;;5014361;28;20061;-73
2021/01/06 05:24:49;;;;;;;16.73;7.97;;;1.10;99.90;;;;;;5013007;28;20018;-73
2021/01/06 05:27:14;;;;;;;13.05;7.93;;;1.10;99.90;;;;;;5013263;28;20446;-73
2021/01/06 05:29:45;;;;;;;14.60;7.47;;;1.10;99.90;;;;;;5013204;28;20030;-73
2021/01/06 05:32:23;;;;;;;21.77;9.02;;;1.10;99.90;;;;;;5028628;28;20037;-73
2021/01/06 05:34:52;;;;;;;15.52;7.55;;;1.10;99.90;;;;;;5032675;28;20030;-73
2021/01/06 05:37:20;;;;;;;13.45;7.63;;;1.10;99.90;;;;;;5032839;28;20104;-73
2021/01/06 05:39:45;;;;;;;13.38;7.85;;;1.10;99.90;;;;;;5032796;28;20036;-73
2021/01/06 05:42:22;;;;;;;15.30;7.97;;;1.00;99.90;;;;;;5019713;28;20108;-73
2021/01/06 05:44:54;;;;;;;14.27;7.57;;;1.00;99.90;;;;;;5012731;28;20113;-73
2021/01/06 05:47:59;;;;;;;16.88;8.32;;;1.00;99.90;;;;;;5012764;28;20033;-73
2021/01/06 05:51:03;;;;;;;13.73;6.88;;;0.90;99.90;;;;;;5010554;28;20042;-73
2021/01/06 05:53:34;;;;;;;12.90;7.30;;;1.00;99.90;;;;;;5012645;28;20414;-73
2021/01/06 05:56:04;;;;;;;18.33;8.48;;;1.00;99.90;;;;;;5012293;28;20046;-73
2021/01/06 05:58:37;;;;;;;11.20;7.57;;;1.00;99.90;;;;;;5012717;28;20037;-73
2021/01/06 06:01:29;;;;;;;;;;;0.90;99.90;;;;;;5013329;28;20030;-73
2021/01/06 06:04:14;;;;;;;15.18;7.90;;;0.90;99.90;;;;;;5012133;28;19905;-74
2021/01/06 06:06:58;;;;;;;16.58;7.65;;;0.80;99.90;;;;;;5012616;28;20100;-73
2021/01/06 06:09:30;;;;;;;14.25;8.40;;;0.90;99.90;;;;;;5012550;28;20021;-74
2021/01/06 06:12:15;;;;;;;18.73;7.68;;;0.90;99.90;;;;;;5012472;28;20057;-74
2021/01/06 06:15:05;;;;;;;20.02;8.30;;;0.90;99.90;;;;;;5012149;28;20044;-73
2021/01/06 06:17:46;;;;;;;15.68;8.68;;;0.90;99.90;;;;;;5029579;28;20033;-74
2021/01/06 06:20:40;;;;;;;12.05;7.63;;;0.90;99.90;;;;;;5028653;28;20033;-73
2021/01/06 06:23:24;;;;;;;;;;;0.90;99.90;;;;;;5012681;28;20034;-74
2021/01/06 06:26:25;;;;;;;11.93;7.32;;;0.90;99.90;;;;;;5012007;28;19909;-73
2021/01/06 06:29:07;;;;;;;15.90;8.32;;;0.90;99.90;;;;;;4994966;28;20026;-73
2021/01/06 06:31:35;;;;;;;12.98;7.50;;;0.90;99.90;;;;;;5023326;28;20484;-73
2021/01/06 06:34:06;;;;;;;17.77;8.38;;;0.80;99.90;;;;;;5031761;28;20037;-73
2021/01/06 06:36:34;;;;;;;15.55;7.20;;;0.80;99.90;;;;;;5031911;28;20025;-74
2021/01/06 06:39:30;;;;;;;14.20;7.10;;;0.80;99.90;;;;;;5030685;28;20030;-74
2021/01/06 06:42:14;;;;;;;11.00;7.35;;;0.90;99.90;;;;;;5018673;28;20040;-74
2021/01/06 06:44:57;;;;;;;16.92;8.00;;;0.80;99.90;;;;;;5011959;28;20088;-74
2021/01/06 06:47:52;;;;;;;13.90;7.32;;;0.80;99.90;;;;;;5010743;28;20084;-74
2021/01/06 06:50:43;;;;;;;10.82;7.15;;;0.80;99.90;;;;;;4992176;28;20552;-73
2021/01/06 06:53:14;;;;;;;11.93;7.13;;;0.80;99.90;;;;;;5049876;28;20095;-74
2021/01/06 06:56:07;;;;;;;22.35;7.88;;;0.80;99.90;;;;;;5051177;28;20033;-74
2021/01/06 06:58:47;;;;;;;12.30;8.00;;;0.70;99.90;;;;;;5051617;28;20069;-74
2021/01/06 07:01:21;;;;;;;17.65;8.23;;;0.80;99.90;;;;;;5043276;28;20052;-74
2021/01/06 07:04:01;;;;;;;16.02;7.80;;;0.80;99.90;;;;;;5030256;28;20053;-74
2021/01/06 07:06:27;;;;;;;17.98;8.05;;;0.80;99.90;;;;;;5031593;28;20032;-74
2021/01/06 07:08:57;;;;;;;10.68;6.72;;;0.80;99.90;;;;;;5031524;28;20044;-74
2021/01/06 07:11:46;;;;;;;11.63;6.93;;;0.90;99.90;;;;;;5025380;28;20069;-74
2021/01/06 07:14:26;;;;;;;18.60;7.25;;;0.90;99.90;;;;;;5015501;28;20033;-74
2021/01/06 07:16:52;;;;;;;13.57;7.88;;;0.90;99.90;;;;;;5015729;28;20442;-74
2021/01/06 07:19:28;;;;;;;18.85;7.10;;;0.80;99.90;;;;;;5015570;28;20022;-73
2021/01/06 07:22:03;;;;;;;14.02;7.55;;;0.80;99.90;;;;;;5021912;28;20108;-74
2021/01/06 07:24:29;;;;;;;12.68;7.50;;;0.80;99.90;;;;;;5035183;28;20659;-73
2021/01/06 07:26:59;;;;;;;15.90;8.35;;;0.80;99.90;;;;;;5034040;28;20049;-74
2021/01/06 07:29:31;;;;;;;16.75;8.02;;;0.80;99.90;;;;;;5035305;28;20021;-74
2021/01/06 07:32:04;;;;;;;14.57;8.10;;;0.80;99.90;;;;;;5026108;28;20053;-73
2021/01/06 07:34:43;;;;;;;18.17;8.52;;;0.80;99.90;;;;;;5027144;28;20481;-73
2021/01/06 07:37:36;;;;;;;18.17;8.27;;;0.80;99.90;;;;;;5031813;28;20507;-73
2021/01/06 07:40:19;;;;;;;13.60;7.55;;;0.80;99.90;;;;;;5029417;28;20017;-73
2021/01/06 07:43:05;;;;;;;18.98;11.25;;;0.80;99.90;;;;;;5033220;28;20030;-73
2021/01/06 07:45:42;;;;;;;17.98;7.32;;;0.80;99.90;;;;;;5032870;28;20029;-73
2021/01/06 07:48:16;;;;;;;17.17;7.50;;;0.80;99.90;;;;;;5023536;28;20114;-74
2021/01/06 07:51:12;;;;;;;21.15;9.93;;;0.70;99.90;;;;;;5034869;28;20518;-74
2021/01/06 07:53:47;;;;;;;12.55;7.40;;;0.70;99.90;;;;;;5013731;28;20084;-74
2021/01/06 07:56:54;;;;;;;18.60;8.30;;;0.70;99.90;;;;;;5014972;28;20409;-74
2021/01/06 07:59:44;;;;;;;18.50;9.13;;;0.70;99.90;;;;;;4977117;28;20034;-74
2021/01/06 08:02:19;;;;;;;28.50;9.27;;;0.70;99.90;;;;;;5022417;28;20037;-74
2021/01/06 08:05:01;;;;;;;20.23;8.73;;;0.70;99.90;;;;;;5013086;28;20121;-74
2021/01/06 08:07:27;;;;;;;15.70;7.88;;;0.70;99.90;;;;;;5013433;28;20018;-74
2021/01/06 08:09:53;;;;;;;19.92;8.95;;;0.80;99.90;;;;;;5014384;28;20022;-74
2021/01/06 08:12:25;;;;;;;14.85;7.63;;;0.80;99.90;;;;;;5014996;28;20488;-74
2021/01/06 08:15:16;;;;;;;17.13;8.02;;;0.80;99.90;;;;;;5014263;28;20121;-74
2021/01/06 08:18:04;;;;;;;21.33;7.43;;;0.80;99.90;;;;;;5014498;28;20048;-74
2021/01/06 08:21:05;;;;;;;26.60;10.18;;;0.80;99.90;;;;;;5014345;28;20112;-74
2021/01/06 08:24:10;;;;;;;16.92;7.35;;;0.70;99.90;;;;;;5011092;28;20092;-74
2021/01/06 08:26:49;;;;;;;19.73;8.10;;;0.80;99.90;;;;;;5014301;28;20032;-74
2021/01/06 08:29:21;;;;;;;20.83;8.88;;;0.80;99.90;;;;;;5014393;28;20030;-74
2021/01/06 08:31:50;;;;;;;18.17;7.35;;;0.80;99.90;;;;;;5014521;28;20025;-74
2021/01/06 08:34:23;;;;;;;15.77;8.63;;;0.70;99.90;;;;;;5029334;28;20052;-74
2021/01/06 08:37:00;;;;;;;24.15;8.13;;;0.80;99.90;;;;;;5033944;28;20033;-74
2021/01/06 08:39:29;;;;;;;14.55;6.93;;;0.70;99.90;;;;;;5039435;28;20025;-74
2021/01/06 08:42:05;;;;;;;18.63;8.85;;;0.80;99.90;;;;;;5036125;28;20508;-74
2021/01/06 08:44:41;;;;;;;19.88;9.90;;;0.80;99.90;;;;;;5027740;28;20109;-74
2021/01/06 08:47:11;;;;;;;18.35;9.00;;;0.70;99.90;;;;;;5013922;28;20025;-74
2021/01/06 08:49:44;;;;;;;28.42;11.30;;;0.70;99.90;;;;;;5020625;28;20096;-74
2021/01/06 08:52:16;;;;;;;35.17;12.43;;;0.70;99.90;;;;;;5033577;28;20499;-74
2021/01/06 08:54:43;;;;;;;24.38;9.38;;;0.80;99.90;;;;;;5033220;28;20048;-74
2021/01/06 08:57:25;;;;;;;41.28;15.20;;;0.70;99.90;;;;;;5033319;28;20029;-74
2021/01/06 08:59:50;;;;;;;51.83;15.77;;;0.80;99.90;;;;;;5033377;28;20516;-74
2021/01/06 09:02:43;;;;;;;37.33;11.07;;;0.80;99.90;;;;;;5033369;28;20030;-74
2021/01/06 09:05:39;;;;;;;37.70;11.88;;;0.80;99.90;;;;;;5027062;28;20022;-74
2021/01/06 09:08:24;;;;;;;39.13;13.65;;;0.70;99.90;;;;;;5030988;28;20113;-74
2021/01/06 09:11:16;;;;;;;22.55;8.43;;;0.70;99.90;;;;;;5033326;28;20049;-74
2021/01/06 09:14:00;;;;;;;23.05;9.25;;;0.80;99.90;;;;;;5033018;28;20032;-74
2021/01/06 09:17:08;;;;;;;59.13;15.95;;;0.80;99.90;;;;;;5031903;28;20164;-74
2021/01/06 09:19:54;;;;;;;22.95;8.43;;;0.80;99.90;;;;;;5019328;28;20490;-74
2021/01/06 09:22:20;;;;;;;55.72;18.05;;;0.80;99.90;;;;;;5013296;28;20088;-74
2021/01/06 09:24:46;;;;;;;20.95;7.60;;;0.80;99.90;;;;;;5028985;28;20057;-74
2021/01/06 09:27:42;;;;;;;51.75;17.23;;;0.80;99.90;;;;;;5033060;28;20061;-74
2021/01/06 09:30:22;;;;;;;35.65;11.45;;;0.70;99.90;;;;;;5032919;28;20021;-74
2021/01/06 09:32:50;;;;;;;23.63;9.00;;;0.70;99.90;;;;;;5032858;28;20044;-74
2021/01/06 09:35:23;;;;;;;23.50;8.20;;;0.80;99.90;;;;;;5032195;28;20029;-75
2021/01/06 09:38:03;;;;;;;12.03;7.10;;;0.70;99.90;;;;;;5032865;28;20116;-74
2021/01/06 09:40:30;;;;;;;22.42;8.48;;;0.70;99.90;;;;;;5032405;28;20288;-75
2021/01/06 09:43:00;;;;;;;26.90;8.75;;;0.70;99.90;;;;;;5031191;28;20490;-74
2021/01/06 09:45:28;;;;;;;12.82;7.45;;;0.80;99.90;;;;;;5032393;28;20022;-74
2021/01/06 09:48:03;;;;;;;23.98;10.00;;;0.80;99.90;;;;;;5032391;28;20021;-74
2021/01/06 09:50:37;;;;;;;59.67;18.35;;;0.80;99.90;;;;;;5032567;28;20410;-74
2021/01/06 09:53:08;;;;;;;23.35;9.80;;;0.80;99.90;;;;;;5030826;28;20060;-74
2021/01/06 09:55:36;;;;;;;16.55;9.00;;;0.80;99.90;;;;;;5030852;28;20048;-75
2021/01/06 09:58:07;;;;;;;13.82;7.40;;;0.90;99.90;;;;;;5032474;28;20104;-74
2021/01/06 10:00:38;;;;;;;18.13;8.73;;;0.80;99.90;;;;;;5026233;28;20029;-74
2021/01/06 10:03:06;;;;;;;15.60;7.97;;;0.80;99.90;;;;;;5030828;28;20026;-74
2021/01/06 10:05:34;;;;;;;22.98;8.68;;;0.90;99.90;;;;;;5030585;28;20029;-75
2021/01/06 10:08:31;;;;;;;26.05;9.75;;;0.90;99.90;;;;;;5031782;28;20030;-75
2021/01/06 10:11:27;;;;;;;15.65;8.93;;;0.90;99.90;;;;;;5032285;28;20045;-75
2021/01/06 10:14:13;;;;;;;21.45;9.38;;;0.90;99.90;;;;;;5032032;28;20075;-75
2021/01/06 10:16:53;;;;;;;15.43;7.97;;;0.90;99.90;;;;;;5032133;28;20021;-75
2021/01/06 10:19:39;;;;;;;13.88;7.95;;;0.80;99.90;;;;;;5031753;28;20113;-75
2021/01/06 10:22:24;;;;;;;17.48;7.00;;;0.90;99.90;;;;;;5031074;28;20026;-74
2021/01/06 10:25:28;;;;;;;12.05;6.35;;;0.90;99.90;;;;;;5031657;28;20501;-75
2021/01/06 10:27:56;;;;;;;16.42;7.35;;;0.90;99.90;;;;;;5031725;28;20022;-75
2021/01/06 10:30:25;;;;;;;16.73;6.85;;;1.00;99.90;;;;;;5030596;28;20025;-75
2021/01/06 10:33:17;;;;;;;23.83;9.30;;;1.00;99.90;;;;;;5031556;28;20041;-75
2021/01/06 10:35:58;;;;;;;15.77;6.93;;;0.90;99.90;;;;;;5031668;28;20040;-75
2021/01/06 10:38:27;;;;;;;14.05;6.47;;;1.00;99.90;;;;;;5031625;28;20025;-75
2021/01/06 10:41:09;;;;;;;15.52;6.47;;;1.00;99.90;;;;;;5031552;28;20033;-75
2021/01/06 10:43:40;;;;;;;10.80;6.95;;;1.00;99.90;;;;;;5031760;28;20045;-75
2021/01/06 10:46:34;;;;;;;13.68;6.47;;;1.00;99.90;;;;;;5031260;28;20444;-74
2021/01/06 10:49:01;;;;;;;13.73;7.15;;;1.00;99.90;;;;;;5031507;28;20045;-78
2021/01/06 10:51:50;;;;;;;15.25;6.65;;;1.10;99.90;;;;;;5030333;28;20041;-74
2021/01/06 10:54:24;;;;;;;12.70;6.78;;;1.00;99.90;;;;;;5030370;28;20064;-76
2021/01/06 10:56:50;;;;;;;13.10;6.05;;;1.00;99.90;;;;;;5031623;28;20035;-74
2021/01/06 10:59:16;;;;;;;15.63;6.70;;;1.00;99.90;;;;;;5031436;28;20091;-74
2021/01/06 11:02:27;;;;;;;9.00;6.53;;;1.00;99.90;;;;;;5030228;28;20022;-74
2021/01/06 11:05:07;;;;;;;12.48;6.28;;;1.00;99.90;;;;;;5024881;28;20108;-73
2021/01/06 11:07:41;;;;;;;16.45;7.07;;;1.00;99.90;;;;;;5030323;28;20397;-73
2021/01/06 11:10:24;;;;;;;14.05;7.53;;;1.10;99.90;;;;;;5031309;28;20096;-74
2021/01/06 11:13:28;;;;;;;62.67;23.65;;;1.00;99.90;;;;;;5030237;28;20051;-74
2021/01/06 11:16:00;;;;;;;19.30;10.13;;;1.10;99.90;;;;;;5015362;28;20037;-73
2021/01/06 11:18:28;;;;;;;13.07;7.25;;;1.10;99.90;;;;;;5031249;28;20060;-73
2021/01/06 11:21:09;;;;;;;16.85;8.25;;;1.10;99.90;;;;;;5031092;28;20080;-74
2021/01/06 11:23:44;;;;;;;15.15;6.10;;;1.00;99.90;;;;;;5031395;28;20026;-74
2021/01/06 11:26:27;;;;;;;25.33;11.45;;;1.00;99.90;;;;;;5030536;28;20029;-74
2021/01/06 11:28:55;;;;;;;27.65;10.10;;;1.00;99.90;;;;;;5029992;28;20037;-73
2021/01/06 11:31:21;;;;;;;13.80;6.75;;;1.00;99.90;;;;;;5029857;28;20030;-72
2021/01/06 11:34:21;;;;;;;20.38;8.95;;;1.00;99.90;;;;;;5031010;28;20109;-73
2021/01/06 11:36:52;;;;;;;16.13;7.93;;;1.00;99.90;;;;;;5031103;28;20481;-73
2021/01/06 11:39:26;;;;;;;16.73;8.02;;;1.00;99.90;;;;;;5031088;28;20029;-74
2021/01/06 11:41:57;;;;;;;19.20;8.15;;;1.00;99.90;;;;;;5031080;28;20079;-74
2021/01/06 11:44:41;;;;;;;13.90;6.97;;;1.00;99.90;;;;;;5030910;28;20028;-74
2021/01/06 11:47:10;;;;;;;18.33;8.20;;;1.00;99.90;;;;;;5031135;28;20017;-74
2021/01/06 11:49:42;;;;;;;12.52;5.55;;;0.90;99.90;;;;;;5030931;28;20064;-75
2021/01/06 11:52:35;;;;;;;19.70;7.60;;;0.90;99.90;;;;;;5029533;28;20426;-75
2021/01/06 11:55:13;;;;;;;20.20;8.35;;;0.90;99.90;;;;;;5030744;28;20120;-74
2021/01/06 11:57:41;;;;;;;12.95;6.15;;;1.00;99.90;;;;;;5030173;28;20145;-74
2021/01/06 12:00:22;;;;;;;16.40;6.95;;;1.00;99.90;;;;;;5033815;28;20026;-74
2021/01/06 12:03:13;;;;;;;22.25;7.25;;;1.00;99.90;;;;;;5034410;28;20036;-74
2021/01/06 12:05:57;;;;;;;15.23;6.70;;;1.00;99.90;;;;;;5034321;28;20072;-75
2021/01/06 12:08:37;;;;;;;20.77;8.50;;;1.10;99.90;;;;;;5034615;28;20021;-74
2021/01/06 12:11:03;;;;;;;20.98;8.40;;;1.10;99.90;;;;;;5031965;28;20496;-74
2021/01/06 12:13:40;;;;;;;16.02;8.13;;;1.00;99.90;;;;;;5034690;28;20022;-75
2021/01/06 12:16:08;;;;;;;12.02;6.35;;;1.00;99.90;;;;;;5034230;28;20018;-74
2021/01/06 12:19:08;;;;;;;12.90;5.63;;;1.00;99.90;;;;;;5034246;28;20064;-74
2021/01/06 12:21:33;;;;;;;22.27;11.57;;;1.10;99.90;;;;;;5032889;28;20482;-74
2021/01/06 12:24:28;;;;;;;21.70;9.85;;;1.10;99.90;;;;;;5034110;28;20029;-74
2021/01/06 12:27:21;;;;;;;31.00;13.75;;;1.10;99.90;;;;;;5034117;28;20025;-74
2021/01/06 12:29:46;;;;;;;23.60;8.82;;;1.10;99.90;;;;;;5049386;28;20037;-74
2021/01/06 12:32:31;;;;;;;14.13;6.65;;;1.00;99.90;;;;;;5034104;28;20021;-74
2021/01/06 12:35:23;;;;;;;14.68;7.93;;;1.00;99.90;;;;;;5034022;28;20025;-74
2021/01/06 12:38:22;;;;;;;27.95;11.43;;;1.00;99.90;;;;;;5033767;28;20436;-74
2021/01/06 12:41:03;;;;;;;12.93;6.10;;;1.00;99.90;;;;;;5033920;28;20026;-74
2021/01/06 12:44:04;;;;;;;14.90;5.95;;;1.10;99.90;;;;;;5033808;28;20502;-74
2021/01/06 12:46:57;;;;;;;13.88;7.28;;;1.10;99.90;;;;;;5011502;28;20026;-74
2021/01/06 12:49:52;;;;;;;16.80;7.25;;;1.10;99.90;;;;;;5033288;28;20092;-74
2021/01/06 12:52:50;;;;;;;15.77;6.47;;;1.10;99.90;;;;;;5033542;28;20026;-74
2021/01/06 12:55:18;;;;;;;15.35;7.22;;;1.10;99.90;;;;;;4990696;28;20049;-75
2021/01/06 12:57:49;;;;;;;12.40;6.65;;;1.10;99.90;;;;;;5033625;28;20100;-74
2021/01/06 13:00:21;;;;;;;16.55;5.60;;;1.10;99.90;;;;;;5033460;28;20025;-74
2021/01/06 13:02:47;;;;;;;9.93;6.43;;;1.00;99.90;;;;;;5026898;28;20157;-74
2021/01/06 13:05:28;;;;;;;13.52;6.00;;;1.00;99.90;;;;;;5024942;28;20103;-74
2021/01/06 13:07:57;;;;;;;9.23;5.85;;;1.00;99.90;;;;;;5032134;28;20048;-75
2021/01/06 13:10:34;;;;;;;9.27;5.43;;;1.00;99.90;;;;;;5032756;28;20029;-74
2021/01/06 13:13:25;;;;;;;11.73;5.47;;;1.00;99.90;;;;;;5033347;28;20084;-74
2021/01/06 13:16:22;;;;;;;14.95;6.20;;;1.00;99.90;;;;;;5031771;28;20029;-74
2021/01/06 13:18:57;;;;;;;13.15;5.88;;;1.10;99.90;;;;;;5031271;28;20073;-74
2021/01/06 13:21:38;;;;;;;12.25;5.35;;;1.00;99.90;;;;;;5033085;28;20083;-75
2021/01/06 13:24:12;;;;;;;10.45;6.13;;;1.00;99.90;;;;;;5033045;28;20103;-75
2021/01/06 13:26:40;;;;;;;12.60;5.05;;;1.00;99.90;;;;;;5033215;28;20435;-75
2021/01/06 13:29:18;;;;;;;10.18;5.88;;;1.10;99.90;;;;;;5032860;28;20068;-74
2021/01/06 13:31:49;;;;;;;8.27;5.68;;;1.00;99.90;;;;;;5032883;28;20112;-74
2021/01/06 13:34:25;;;;;;;11.82;5.93;;;1.00;99.90;;;;;;5032509;28;20034;-74